Time;durP1;ratioP1;P1;durP2;ratioP2;P2;SDS_P1;SDS_P2;PMS_P1;PMS_P2;Temp;Humidity;BMP_temperature;BMP_pressure;BME280_temperature;BME280_humidity;BME280_pressure;Samples;Min_cycle;Max_cycle;Signal;HPM_P1;HPM_P2
2022/12/19 04:53:28;;;;;;;56.80;22.25;;;;;;;-2.66;100.00;102715.88;6350235;27;20114;31
2022/12/19 04:56:31;;;;;;;62.15;22.60;;;;;;;-2.62;100.00;102712.25;5341268;33;34115;-83
2022/12/19 04:59:34;;;;;;;62.58;23.87;;;;;;;-2.64;100.00;102719.31;5342886;33;34903;-83
2022/12/19 05:02:37;;;;;;;66.60;22.85;;;;;;;-2.57;100.00;102726.22;5342763;33;33928;-83
2022/12/19 05:05:40;;;;;;;68.47;25.33;;;;;;;-2.54;100.00;102720.00;5342999;33;34039;-83
2022/12/19 05:08:43;;;;;;;75.05;25.83;;;;;;;-2.41;100.00;102713.50;5342744;33;34710;-83
2022/12/19 05:11:46;;;;;;;70.20;27.08;;;;;;;-2.43;100.00;102706.53;5342820;33;34468;-83
2022/12/19 05:14:49;;;;;;;63.78;23.50;;;;;;;-2.42;100.00;102714.44;5343371;33;33436;-83
2022/12/19 05:17:51;;;;;;;67.65;24.25;;;;;;;-2.41;100.00;102718.78;5343381;33;34338;-83
2022/12/19 05:20:57;;;;;;;76.80;25.80;;;;;;;-2.39;100.00;102727.53;5329428;33;32630;-82
2022/12/19 05:24:00;;;;;;;70.15;25.95;;;;;;;-2.34;100.00;102717.75;5342928;33;34316;-83
2022/12/19 05:27:03;;;;;;;66.20;25.25;;;;;;;-2.33;100.00;102715.97;5330116;33;32249;-83
2022/12/19 05:30:06;;;;;;;78.25;25.12;;;;;;;-2.37;100.00;102716.94;5343259;33;34152;-83
2022/12/19 05:33:09;;;;;;;65.50;24.10;;;;;;;-2.35;100.00;102723.06;5343200;33;33917;-83
2022/12/19 05:36:13;;;;;;;73.45;23.65;;;;;;;-2.29;100.00;102707.06;5343981;33;34375;-83
2022/12/19 05:39:16;;;;;;;67.68;23.05;;;;;;;-2.28;100.00;102698.28;5331368;33;32332;-83
2022/12/19 05:42:19;;;;;;;64.85;25.88;;;;;;;-2.24;100.00;102701.69;5343306;33;34803;-84
2022/12/19 05:45:22;;;;;;;76.07;24.90;;;;;;;-2.22;100.00;102705.13;5328600;33;32299;-84
2022/12/19 05:48:24;;;;;;;67.15;26.17;;;;;;;-2.21;100.00;102710.38;5343594;33;33741;-83
2022/12/19 05:51:27;;;;;;;69.60;24.73;;;;;;;-2.22;100.00;102706.03;5342767;33;33581;-83
2022/12/19 05:54:30;;;;;;;67.78;25.65;;;;;;;-2.17;100.00;102705.91;5343151;33;34474;-83
2022/12/19 05:57:33;;;;;;;64.82;23.70;;;;;;;-2.15;100.00;102699.69;5320835;33;31827;-83
2022/12/19 06:00:36;;;;;;;66.32;25.27;;;;;;;-2.20;100.00;102703.34;5343684;33;34780;-83
2022/12/19 06:03:39;;;;;;;72.45;25.67;;;;;;;-2.19;100.00;102700.69;5343306;33;34598;-83
2022/12/19 06:06:42;;;;;;;65.05;25.98;;;;;;;-2.13;100.00;102699.66;5342687;33;34340;-83
2022/12/19 06:09:45;;;;;;;68.95;25.02;;;;;;;-2.18;100.00;102702.41;5343936;33;33546;-83
2022/12/19 06:12:47;;;;;;;81.10;29.55;;;;;;;-2.13;100.00;102708.44;5342341;33;34877;-83
2022/12/19 06:16:06;;;;;;;70.30;28.50;;;;;;;-2.05;100.00;102716.12;5343030;33;34624;-83
2022/12/19 06:19:08;;;;;;;75.28;28.15;;;;;;;-2.10;100.00;102724.19;5342649;33;34217;-83
2022/12/19 06:22:11;;;;;;;81.60;28.12;;;;;;;-2.07;100.00;102720.63;5342685;33;34782;-83
2022/12/19 06:25:14;;;;;;;72.45;27.50;;;;;;;-2.09;100.00;102727.69;5342597;33;34063;-83
2022/12/19 06:28:17;;;;;;;76.78;28.62;;;;;;;-1.94;100.00;102731.72;5334662;33;34043;-83
2022/12/19 06:31:21;;;;;;;68.68;25.37;;;;;;;-1.97;100.00;102722.09;5329596;33;34779;-83
2022/12/19 06:34:24;;;;;;;70.65;28.38;;;;;;;-1.92;100.00;102722.84;5328570;33;34963;-84
2022/12/19 06:37:48;;;;;;;67.93;24.27;;;;;;;-1.90;100.00;102723.69;5343650;33;33955;-84
2022/12/19 06:44:14;;;;;;;64.30;25.08;;;;;;;-1.79;100.00;102722.53;5336687;33;33794;-83
2022/12/19 06:47:18;;;;;;;64.57;25.37;;;;;;;-1.76;100.00;102735.66;5341732;33;34733;-84
2022/12/19 06:50:20;;;;;;;65.78;24.00;;;;;;;-1.79;100.00;102739.22;5336430;33;35261;-85
2022/12/19 06:53:23;;;;;;;64.43;24.58;;;;;;;-1.67;100.00;102743.31;5319206;33;33094;-84
2022/12/19 06:56:27;;;;;;;58.22;23.60;;;;;;;-1.69;100.00;102734.59;5347191;33;33963;-84
2022/12/19 06:59:30;;;;;;;61.83;24.15;;;;;;;-1.68;100.00;102731.87;5341671;33;273049;-84
2022/12/19 07:02:33;;;;;;;59.28;22.17;;;;;;;-1.54;100.00;102731.53;5341278;33;34050;-84
2022/12/19 07:05:36;;;;;;;60.58;21.40;;;;;;;-1.56;100.00;102721.91;5340398;33;34763;-84
2022/12/19 07:08:39;;;;;;;58.60;22.13;;;;;;;-1.57;100.00;102736.91;5336801;33;34709;-83
2022/12/19 07:11:42;;;;;;;51.67;22.70;;;;;;;-1.58;100.00;102739.56;5347964;33;33530;-83
2022/12/19 07:14:45;;;;;;;60.30;22.58;;;;;;;-1.66;100.00;102743.28;5338177;33;32391;-83
2022/12/19 07:17:55;;;;;;;64.18;23.00;;;;;;;-1.75;100.00;102748.81;5341779;33;34207;-83
2022/12/19 07:20:57;;;;;;;59.20;22.25;;;;;;;-1.70;100.00;102744.25;5334429;33;32910;-83
2022/12/19 07:24:00;;;;;;;54.92;22.50;;;;;;;-1.67;100.00;102754.78;5342584;33;34352;-84
2022/12/19 07:27:03;;;;;;;61.15;22.92;;;;;;;-1.66;100.00;102745.06;5340083;33;33898;-83
2022/12/19 07:30:07;;;;;;;54.08;20.80;;;;;;;-1.68;100.00;102738.94;5341132;33;34278;-84
2022/12/19 07:33:09;;;;;;;48.35;19.65;;;;;;;-1.55;100.00;102744.75;5333705;33;34520;-84
2022/12/19 07:36:15;;;;;;;45.42;18.52;;;;;;;-1.53;100.00;102748.25;5335004;33;34359;-84
2022/12/19 07:39:17;;;;;;;45.00;18.05;;;;;;;-1.55;100.00;102745.66;5343345;33;34541;-84
2022/12/19 07:42:20;;;;;;;46.97;17.08;;;;;;;-1.45;100.00;102747.12;5346842;33;33754;-84
2022/12/19 07:45:23;;;;;;;44.95;17.25;;;;;;;-1.55;100.00;102744.75;5343062;33;34186;-84
2022/12/19 07:48:29;;;;;;;41.63;16.70;;;;;;;-1.82;100.00;102739.31;5362507;33;35338;-84
2022/12/19 07:51:32;;;;;;;43.80;17.00;;;;;;;-1.96;100.00;102738.78;5346144;33;34210;-84
2022/12/19 07:54:35;;;;;;;41.45;16.95;;;;;;;-1.91;100.00;102743.06;5339439;33;34209;-83
2022/12/19 07:57:39;;;;;;;48.15;17.73;;;;;;;-1.94;100.00;102747.56;5335923;33;32339;-84
2022/12/19 08:00:42;;;;;;;33.47;15.25;;;;;;;-1.85;100.00;102755.22;5324513;33;33668;-84
2022/12/19 08:03:45;;;;;;;43.20;17.23;;;;;;;-1.74;100.00;102769.03;5340786;33;35245;-84
2022/12/19 08:06:48;;;;;;;42.22;16.67;;;;;;;-1.70;100.00;102769.81;5341523;33;34326;-84
2022/12/19 08:09:51;;;;;;;42.10;16.05;;;;;;;-1.69;100.00;102772.41;5342100;33;33967;-83
2022/12/19 08:12:54;;;;;;;34.47;15.15;;;;;;;-1.71;100.00;102763.66;5343627;33;34050;-84
2022/12/19 08:15:59;;;;;;;33.40;13.68;;;;;;;-1.62;100.00;102766.06;5329217;33;33262;-84
2022/12/19 08:19:02;;;;;;;32.35;13.18;;;;;;;-1.53;100.00;102788.72;5329850;33;34393;-85
2022/12/19 08:22:05;;;;;;;31.42;13.75;;;;;;;-1.54;100.00;102773.78;5320091;33;32404;-89
2022/12/19 08:25:08;;;;;;;34.75;12.55;;;;;;;-1.53;100.00;102778.16;5324122;33;32453;-90
2022/12/19 08:28:10;;;;;;;34.95;13.85;;;;;;;-1.31;100.00;102783.75;5329985;33;33769;-89
2022/12/19 08:31:16;;;;;;;31.50;13.45;;;;;;;-1.09;100.00;102777.84;5335700;33;34052;-89
2022/12/19 08:34:19;;;;;;;34.05;13.45;;;;;;;-1.16;100.00;102779.81;5341740;33;33763;-85
2022/12/19 08:37:22;;;;;;;29.80;12.65;;;;;;;-1.03;100.00;102772.37;5344798;33;34120;-85
2022/12/19 08:40:25;;;;;;;33.05;14.95;;;;;;;-1.06;100.00;102761.91;5341209;33;34098;-84
2022/12/19 08:43:29;;;;;;;32.70;14.30;;;;;;;-0.96;100.00;102760.75;5338292;33;34845;-84
2022/12/19 08:46:32;;;;;;;32.63;13.15;;;;;;;-1.04;100.00;102755.66;5336053;33;34865;-84
2022/12/19 08:49:35;;;;;;;37.10;15.40;;;;;;;-1.20;100.00;102752.59;5339123;33;34401;-84
2022/12/19 08:52:38;;;;;;;35.17;14.45;;;;;;;-0.91;100.00;102758.81;5321641;33;32497;-84
2022/12/19 08:55:40;;;;;;;36.15;15.88;;;;;;;-1.04;100.00;102760.09;5337610;33;34075;-85
2022/12/19 08:58:44;;;;;;;32.53;14.40;;;;;;;-1.12;100.00;102744.44;5347745;33;35179;-85
2022/12/19 09:01:47;;;;;;;40.40;15.52;;;;;;;-1.01;100.00;102746.78;5344145;33;34299;-85
2022/12/19 09:04:53;;;;;;;34.47;15.40;;;;;;;-0.85;100.00;102748.03;5323659;33;33569;-88
2022/12/19 09:08:16;;;;;;;40.22;15.13;;;;;;;-0.87;100.00;102746.38;5345399;33;34767;-86
2022/12/19 09:11:19;;;;;;;34.92;13.90;;;;;;;-1.00;100.00;102743.22;5345028;33;34330;-86
2022/12/19 09:14:22;;;;;;;35.83;13.23;;;;;;;-0.88;100.00;102742.84;5337168;33;34856;-85
2022/12/19 09:17:25;;;;;;;33.50;13.35;;;;;;;-0.90;100.00;102744.69;5326119;33;32118;-86
2022/12/19 09:20:27;;;;;;;30.77;13.20;;;;;;;-0.72;100.00;102743.25;5336232;33;33880;-84
2022/12/19 09:23:31;;;;;;;30.62;12.20;;;;;;;-0.58;100.00;102741.06;5337197;33;33914;-85
2022/12/19 09:26:34;;;;;;;31.33;13.27;;;;;;;-0.90;99.18;102751.75;5318306;33;31898;-85
2022/12/19 09:29:37;;;;;;;28.75;13.05;;;;;;;-0.85;100.00;102763.03;5340089;33;34090;-84
2022/12/19 09:32:40;;;;;;;33.75;13.93;;;;;;;-0.59;100.00;102770.19;5335261;33;34430;-87
2022/12/19 09:35:52;;;;;;;29.70;12.37;;;;;;;-0.72;99.51;102770.56;5321961;33;33211;-87
2022/12/19 09:38:58;;;;;;;36.80;12.07;;;;;;;-0.71;99.98;102759.06;5347202;33;33598;-85
2022/12/19 09:42:25;;;;;;;35.25;12.93;;;;;;;-0.53;99.98;102755.00;5348216;33;34538;-86
2022/12/19 09:46:08;;;;;;;30.52;12.63;;;;;;;-0.29;98.90;102729.56;5326912;33;33316;-84
2022/12/19 09:49:13;;;;;;;29.33;12.07;;;;;;;-0.37;97.67;102728.06;5339593;33;34371;-85
2022/12/19 09:52:19;;;;;;;33.33;12.70;;;;;;;-0.32;97.83;102729.66;5339347;33;34167;-85
2022/12/19 09:55:33;;;;;;;33.00;12.73;;;;;;;-0.48;97.75;102718.69;5351173;33;32460;-85
2022/12/19 09:58:55;;;;;;;31.12;13.20;;;;;;;-0.37;97.56;102713.06;5328656;33;31959;-85
2022/12/19 10:02:19;;;;;;;31.30;13.75;;;;;;;-0.38;97.08;102716.62;5332410;33;32161;-84
2022/12/19 10:05:27;;;;;;;27.23;11.90;;;;;;;-0.55;97.74;102721.59;5348729;33;34397;-85
2022/12/19 10:08:51;;;;;;;29.40;12.75;;;;;;;-0.56;98.04;102703.97;5336355;33;32212;-85
2022/12/19 10:12:45;;;;;;;35.30;15.10;;;;;;;-0.61;98.95;102701.47;5352829;33;34721;-85
2022/12/19 10:16:29;;;;;;;36.47;14.52;;;;;;;-0.49;98.91;102694.94;5337010;33;33582;-85
2022/12/19 10:19:53;;;;;;;32.88;14.20;;;;;;;-0.39;98.52;102693.69;5341850;33;34760;-85
2022/12/19 10:23:19;;;;;;;34.28;14.13;;;;;;;-0.16;98.41;102702.66;5346622;33;34409;-84
2022/12/19 10:26:29;;;;;;;38.45;15.35;;;;;;;0.12;96.74;102690.22;5334477;33;34070;-85
2022/12/19 10:29:47;;;;;;;;;;;;;;;0.42;95.31;102693.56;5341195;33;34399;-85
2022/12/19 10:33:09;;;;;;;32.63;13.35;;;;;;;0.65;92.53;102692.72;5338889;33;34287;-84
2022/12/19 10:36:23;;;;;;;33.35;14.65;;;;;;;0.54;91.47;102689.59;5343113;33;33576;-84
2022/12/19 10:40:03;;;;;;;35.85;14.52;;;;;;;0.57;91.15;102678.88;5338715;33;35363;-88
2022/12/19 10:43:33;;;;;;;34.70;13.85;;;;;;;0.77;90.64;102670.19;5334806;33;33910;-84
2022/12/19 10:46:47;;;;;;;39.05;13.77;;;;;;;0.81;90.44;102670.94;5325097;33;34122;-82
2022/12/19 10:49:50;;;;;;;32.63;13.25;;;;;;;0.97;89.53;102666.78;5339484;33;33996;-83
2022/12/19 10:53:10;;;;;;;30.65;13.15;;;;;;;0.94;88.63;102661.59;5339716;33;33215;-83
2022/12/19 10:56:21;;;;;;;34.63;14.40;;;;;;;0.73;89.35;102657.09;5340032;33;34563;-84
2022/12/19 10:59:26;;;;;;;33.30;13.48;;;;;;;0.74;88.80;102664.16;5319330;33;32527;-82
2022/12/19 11:02:38;;;;;;;35.53;14.70;;;;;;;0.69;89.31;102664.31;5338927;33;35403;-82
2022/12/19 11:05:47;;;;;;;32.42;13.85;;;;;;;0.42;91.45;102652.97;5340466;33;35386;-82
2022/12/19 11:09:23;;;;;;;34.80;14.35;;;;;;;0.38;90.79;102649.56;5342955;33;33963;-82
2022/12/19 11:12:27;;;;;;;31.40;14.05;;;;;;;0.59;91.83;102636.44;5344858;33;32847;-82
2022/12/19 11:15:52;;;;;;;29.60;13.93;;;;;;;0.64;90.85;102638.00;5345619;33;34982;-82
2022/12/19 11:19:36;;;;;;;33.35;14.38;;;;;;;0.76;90.79;102646.38;5337718;33;34868;-84
2022/12/19 11:23:02;;;;;;;32.53;14.87;;;;;;;0.74;92.08;102649.09;5337245;33;34945;-82
2022/12/19 11:26:41;;;;;;;33.13;13.95;;;;;;;1.03;92.31;102652.41;5341400;33;33907;-82
2022/12/19 11:30:22;;;;;;;31.47;13.87;;;;;;;0.81;90.31;102639.13;5339836;33;34645;-82
2022/12/19 11:33:45;;;;;;;30.92;13.07;;;;;;;0.79;89.70;102633.00;5340245;33;33967;-83
2022/12/19 11:37:09;;;;;;;28.27;12.60;;;;;;;0.95;88.92;102626.19;5330463;33;33907;-82
2022/12/19 11:40:34;;;;;;;32.58;13.40;;;;;;;1.11;87.98;102623.78;5332192;33;34673;-82
2022/12/19 11:43:55;;;;;;;34.67;14.80;;;;;;;1.21;87.31;102621.66;5338132;33;34320;-81
2022/12/19 11:47:28;;;;;;;32.95;14.98;;;;;;;1.62;85.22;102617.28;5323995;33;32539;-83
2022/12/19 11:50:38;;;;;;;32.67;14.43;;;;;;;2.10;83.94;102607.22;5329822;33;34247;-83
2022/12/19 11:53:54;;;;;;;34.85;15.95;;;;;;;2.39;81.10;102598.81;5338414;33;34215;-83
2022/12/19 11:56:58;;;;;;;36.28;14.18;;;;;;;2.53;81.13;102598.19;5350489;33;34616;-84
2022/12/19 12:00:01;;;;;;;31.92;15.15;;;;;;;2.58;79.71;102595.31;5334328;33;33266;-84
2022/12/19 12:03:17;;;;;;;32.30;14.63;;;;;;;2.89;78.67;102592.06;5343247;33;34678;-84
2022/12/19 12:06:19;;;;;;;32.85;14.70;;;;;;;3.09;77.26;102583.97;5338507;33;34546;-88
2022/12/19 12:09:45;;;;;;;37.20;15.98;;;;;;;2.61;80.79;102582.75;5342822;33;33919;-85
2022/12/19 12:13:22;;;;;;;30.30;14.00;;;;;;;2.65;78.31;102580.78;5340932;33;33617;-84
2022/12/19 12:17:17;;;;;;;30.73;14.75;;;;;;;2.94;78.32;102574.94;5335971;33;32847;-85
2022/12/19 12:21:11;;;;;;;33.53;15.20;;;;;;;2.97;78.26;102576.59;5346700;33;33594;-84
2022/12/19 12:25:00;;;;;;;32.38;15.23;;;;;;;2.97;76.51;102581.06;5339828;33;34520;-85
2022/12/19 12:28:43;;;;;;;34.10;15.30;;;;;;;4.07;74.25;102559.47;5331590;33;34529;-84
2022/12/19 12:32:37;;;;;;;35.10;16.00;;;;;;;3.46;73.73;102563.50;5336981;33;34652;-84
2022/12/19 12:36:03;;;;;;;32.88;16.45;;;;;;;3.97;73.28;102568.87;5333393;33;33646;-84
2022/12/19 12:39:48;;;;;;;36.17;16.25;;;;;;;5.50;68.65;102565.63;5346134;33;33612;-85
2022/12/19 12:43:36;;;;;;;32.13;15.73;;;;;;;5.23;66.67;102552.94;5336694;33;33880;-85
2022/12/19 12:46:47;;;;;;;35.60;15.38;;;;;;;4.82;67.46;102568.66;5321440;33;32337;-84
2022/12/19 12:49:54;;;;;;;35.33;16.05;;;;;;;4.89;67.84;102561.19;5327825;33;32858;-84
2022/12/19 12:53:05;;;;;;;30.83;15.65;;;;;;;4.16;70.35;102561.63;5340749;33;34130;-84
2022/12/19 12:56:11;;;;;;;34.03;15.82;;;;;;;4.70;68.55;102559.53;5337179;33;34125;-84
2022/12/19 12:59:25;;;;;;;33.67;16.55;;;;;;;3.16;73.98;102557.94;5341458;33;34913;-84
2022/12/19 13:02:30;;;;;;;36.05;16.17;;;;;;;2.47;77.89;102551.47;5340729;33;34419;-84
2022/12/19 13:05:39;;;;;;;34.28;17.20;;;;;;;1.81;81.89;102553.59;5344601;33;33935;-84
2022/12/19 13:08:50;;;;;;;32.08;14.70;;;;;;;1.31;84.75;102554.00;5322380;33;32778;-84
2022/12/19 13:13:08;;;;;;;32.75;14.30;;;;;;;1.04;85.86;102556.00;5325327;33;32516;-85
2022/12/19 13:15:51;;;;;;;30.58;14.85;;;;;;;0.65;88.87;102546.94;5334374;33;33983;-85
2022/12/19 13:19:15;;;;;;;30.60;14.50;;;;;;;0.52;89.57;102558.91;5344522;33;33663;-85
2022/12/19 13:22:28;;;;;;;29.70;12.93;;;;;;;0.24;91.86;102539.72;5341350;33;34671;-85
2022/12/19 13:25:39;;;;;;;32.33;13.20;;;;;;;0.26;92.14;102544.00;5319679;33;32075;-85
2022/12/19 13:28:42;;;;;;;;;;;;;;;0.14;93.37;102552.44;5349470;33;33576;-85
2022/12/19 13:32:15;;;;;;;30.80;13.55;;;;;;;0.04;95.24;102543.97;5344806;33;34269;-84
2022/12/19 13:35:18;;;;;;;35.55;13.07;;;;;;;0.00;94.65;102534.44;5337006;33;34364;-85
2022/12/19 13:38:46;;;;;;;32.88;14.32;;;;;;;0.09;95.10;102526.13;5336533;33;34338;-85
2022/12/19 13:46:38;;;;;;;31.55;12.65;;;;;;;-0.08;95.61;102516.16;5326990;33;34382;-85
2022/12/19 13:49:43;;;;;;;33.40;13.57;;;;;;;-0.18;96.04;102522.69;5322206;33;32213;-84
2022/12/19 13:52:50;;;;;;;33.70;13.68;;;;;;;-0.41;97.40;102523.56;5335486;33;32237;-85
2022/12/19 13:55:54;;;;;;;33.10;14.32;;;;;;;-0.57;99.59;102522.34;5342371;33;35362;-85
2022/12/19 13:59:01;;;;;;;28.12;13.00;;;;;;;-0.59;99.59;102538.25;5341914;33;34540;-85
2022/12/19 14:02:20;;;;;;;35.45;14.65;;;;;;;-0.74;100.00;102529.06;5328097;33;33256;-85
2022/12/19 14:05:28;;;;;;;31.83;13.48;;;;;;;-0.80;100.00;102526.62;5329712;33;35159;-85
2022/12/19 14:08:56;;;;;;;37.70;15.35;;;;;;;-0.92;100.00;102529.69;5328424;33;33670;-88
2022/12/19 14:16:14;;;;;;;41.90;15.18;;;;;;;-0.86;100.00;102529.47;5327933;33;35148;-85
2022/12/19 14:19:27;;;;;;;36.25;14.85;;;;;;;-0.88;100.00;102523.38;5327463;33;34096;-85
2022/12/19 14:22:32;;;;;;;29.67;15.13;;;;;;;-0.97;100.00;102527.19;5312640;33;33183;-85
2022/12/19 14:25:40;;;;;;;38.83;15.00;;;;;;;-1.10;100.00;102528.50;5326944;33;33927;-85
2022/12/19 14:29:25;;;;;;;35.58;13.80;;;;;;;-1.17;100.00;102521.69;5341277;33;34101;-85
2022/12/19 14:32:52;;;;;;;34.42;14.45;;;;;;;-1.45;100.00;102521.72;5331937;33;35086;-89
2022/12/19 14:36:21;;;;;;;32.22;12.98;;;;;;;-1.56;100.00;102521.16;5340593;33;34016;-85
2022/12/19 14:39:34;;;;;;;34.65;14.65;;;;;;;-1.59;100.00;102519.47;5342272;33;33985;-85
2022/12/19 14:46:18;;;;;;;29.67;13.23;;;;;;;-1.75;100.00;102527.03;5336487;33;34115;-85
2022/12/19 14:49:41;;;;;;;30.85;13.32;;;;;;;-1.76;100.00;102532.31;5325016;33;34347;-85
2022/12/19 14:53:19;;;;;;;37.25;14.25;;;;;;;-1.85;100.00;102531.69;5325609;33;34497;-85
2022/12/19 14:56:42;;;;;;;37.92;15.68;;;;;;;-1.84;100.00;102533.44;5350742;33;34264;-88
2022/12/19 15:00:25;;;;;;;41.33;16.70;;;;;;;-1.93;100.00;102527.53;5351103;33;35391;-85
2022/12/19 15:04:03;;;;;;;34.35;15.63;;;;;;;-2.09;100.00;102530.63;5345779;33;34561;-85
2022/12/19 15:07:29;;;;;;;32.35;14.00;;;;;;;-2.02;100.00;102522.53;5338151;33;34357;-84
2022/12/19 15:10:34;;;;;;;33.03;14.60;;;;;;;-2.05;100.00;102531.41;5333646;33;35505;-84
2022/12/19 15:13:57;;;;;;;29.12;13.62;;;;;;;-2.10;100.00;102533.31;5332297;33;33524;-84
2022/12/19 15:17:22;;;;;;;35.60;14.48;;;;;;;-2.16;100.00;102534.34;5326039;33;34429;-84
2022/12/19 15:20:25;;;;;;;36.97;13.38;;;;;;;-2.24;100.00;102546.88;5312522;33;33300;-84
2022/12/19 15:23:29;;;;;;;36.25;14.80;;;;;;;-2.27;100.00;102546.97;5325537;33;33722;-84
2022/12/19 15:26:35;;;;;;;40.33;16.35;;;;;;;-2.30;100.00;102545.28;5313886;33;32921;-88
2022/12/19 15:29:37;;;;;;;37.00;16.33;;;;;;;-2.32;100.00;102547.09;5313875;33;33093;-88
2022/12/19 15:32:40;;;;;;;36.05;15.27;;;;;;;-2.31;100.00;102537.41;5311004;33;32333;-88
2022/12/19 15:35:43;;;;;;;38.03;17.58;;;;;;;-2.21;100.00;102538.87;5328081;33;34455;-88
2022/12/19 15:38:46;;;;;;;49.97;17.90;;;;;;;-2.25;100.00;102542.53;5338744;33;33382;-85
2022/12/19 15:41:52;;;;;;;42.40;17.08;;;;;;;-2.31;100.00;102545.31;5343559;33;34178;-84
2022/12/19 15:44:56;;;;;;;43.10;18.12;;;;;;;-2.37;100.00;102541.09;5344654;33;35149;-84
2022/12/19 15:48:00;;;;;;;34.75;16.05;;;;;;;-2.26;100.00;102545.19;5329259;33;32571;-85
2022/12/19 15:51:03;;;;;;;39.58;16.50;;;;;;;-2.34;100.00;102542.75;5341578;33;33421;-84
2022/12/19 15:54:06;;;;;;;35.13;16.25;;;;;;;-2.32;100.00;102536.53;5325634;33;33500;-84
2022/12/19 15:57:38;;;;;;;40.53;16.48;;;;;;;-2.41;100.00;102536.78;5314389;33;32550;-84
2022/12/19 16:00:47;;;;;;;40.58;17.12;;;;;;;-2.47;100.00;102529.03;5325219;33;34144;-84
2022/12/19 16:03:50;;;;;;;35.85;16.27;;;;;;;-2.51;100.00;102535.31;5310577;33;33792;-84
2022/12/19 16:06:53;;;;;;;39.58;17.92;;;;;;;-2.53;100.00;102532.69;5323511;33;32135;-84
2022/12/19 16:09:56;;;;;;;37.00;16.67;;;;;;;-2.53;100.00;102522.16;5323118;33;33491;-84
2022/12/19 16:12:59;;;;;;;39.28;16.30;;;;;;;-2.50;100.00;102526.50;5337360;33;33989;-85
2022/12/19 16:16:03;;;;;;;42.75;18.05;;;;;;;-2.48;100.00;102523.81;5333177;33;35215;-84
2022/12/19 16:19:29;;;;;;;45.22;17.42;;;;;;;-2.32;100.00;102520.72;5310203;33;34090;-84
2022/12/19 16:22:32;;;;;;;37.90;18.58;;;;;;;-2.41;100.00;102520.09;5326498;33;33901;-84
2022/12/19 16:25:43;;;;;;;35.80;15.48;;;;;;;-2.40;100.00;102522.72;5329497;33;34504;-84
2022/12/19 16:28:46;;;;;;;39.80;15.80;;;;;;;-2.38;100.00;102518.25;5333307;33;34412;-84
2022/12/19 16:31:48;;;;;;;34.88;14.75;;;;;;;-2.31;100.00;102521.56;5343672;33;33670;-84
2022/12/19 16:34:54;;;;;;;41.35;16.35;;;;;;;-2.29;100.00;102506.56;5312392;33;33836;-84
2022/12/19 16:37:57;;;;;;;41.60;15.93;;;;;;;-2.21;100.00;102511.66;5312866;33;33115;-84
2022/12/19 16:41:03;;;;;;;39.25;16.83;;;;;;;-1.96;100.00;102511.78;5313032;33;32188;-84
2022/12/19 16:44:19;;;;;;;36.85;15.57;;;;;;;-2.08;100.00;102497.19;5318773;33;32198;-84
2022/12/19 16:47:22;;;;;;;33.72;16.10;;;;;;;-2.05;100.00;102494.44;5336208;33;33622;-88
2022/12/19 16:50:28;;;;;;;41.28;16.85;;;;;;;-1.97;100.00;102494.22;5335637;33;34107;-89
2022/12/19 16:53:31;;;;;;;39.75;16.50;;;;;;;-2.06;100.00;102490.94;5325738;33;34189;-85
2022/12/19 16:56:39;;;;;;;43.25;16.95;;;;;;;-1.90;100.00;102485.22;5333015;33;33514;-85
2022/12/19 16:59:42;;;;;;;36.75;14.60;;;;;;;-1.98;100.00;102481.97;5330203;33;34950;-85
